sensor_id;sensor_type;location;lat;lon;timestamp;temperature;humidity
54006;DHT22;39919;38.160;-122.260;2023-03-04T00:01:43;16.70;56.70
54006;DHT22;39919;38.160;-122.260;2023-03-04T00:04:19;16.60;58.30
54006;DHT22;39919;38.160;-122.260;2023-03-04T00:06:53;16.60;59.10
54006;DHT22;39919;38.160;-122.260;2023-03-04T00:09:27;16.60;59.60
54006;DHT22;39919;38.160;-122.260;2023-03-04T00:11:56;16.50;60.20
54006;DHT22;39919;38.160;-122.260;2023-03-04T00:14:27;16.50;60.40
54006;DHT22;39919;38.160;-122.260;2023-03-04T00:16:59;16.40;60.80
54006;DHT22;39919;38.160;-122.260;2023-03-04T00:19:31;16.40;61.30
54006;DHT22;39919;38.160;-122.260;2023-03-04T00:22:03;16.30;61.80
54006;DHT22;39919;38.160;-122.260;2023-03-04T00:24:33;16.30;61.60
54006;DHT22;39919;38.160;-122.260;2023-03-04T00:27:11;16.30;61.60
54006;DHT22;39919;38.160;-122.260;2023-03-04T00:29:40;16.20;62.40
54006;DHT22;39919;38.160;-122.260;2023-03-04T00:32:11;16.20;62.10
54006;DHT22;39919;38.160;-122.260;2023-03-04T00:34:42;16.20;62.40
54006;DHT22;39919;38.160;-122.260;2023-03-04T00:37:13;16.10;63.20
54006;DHT22;39919;38.160;-122.260;2023-03-04T00:39:42;16.10;62.70
54006;DHT22;39919;38.160;-122.260;2023-03-04T00:42:11;16.10;62.50
54006;DHT22;39919;38.160;-122.260;2023-03-04T00:44:41;16.00;62.20
54006;DHT22;39919;38.160;-122.260;2023-03-04T00:47:10;16.00;62.70
54006;DHT22;39919;38.160;-122.260;2023-03-04T00:49:39;15.90;62.70
54006;DHT22;39919;38.160;-122.260;2023-03-04T00:52:10;15.90;62.70
54006;DHT22;39919;38.160;-122.260;2023-03-04T00:54:48;15.80;63.30
54006;DHT22;39919;38.160;-122.260;2023-03-04T00:57:17;15.70;63.80
54006;DHT22;39919;38.160;-122.260;2023-03-04T00:59:47;15.60;64.00
54006;DHT22;39919;38.160;-122.260;2023-03-04T01:02:20;15.50;63.80
54006;DHT22;39919;38.160;-122.260;2023-03-04T01:04:52;15.50;63.00
54006;DHT22;39919;38.160;-122.260;2023-03-04T01:07:24;15.40;62.50
54006;DHT22;39919;38.160;-122.260;2023-03-04T01:09:58;15.30;61.90
54006;DHT22;39919;38.160;-122.260;2023-03-04T01:12:29;15.20;61.60
54006;DHT22;39919;38.160;-122.260;2023-03-04T01:14:58;15.20;61.60
54006;DHT22;39919;38.160;-122.260;2023-03-04T01:17:27;15.10;61.50
54006;DHT22;39919;38.160;-122.260;2023-03-04T01:19:56;15.00;61.40
54006;DHT22;39919;38.160;-122.260;2023-03-04T01:22:29;14.90;61.20
54006;DHT22;39919;38.160;-122.260;2023-03-04T01:25:09;14.90;60.90
54006;DHT22;39919;38.160;-122.260;2023-03-04T01:27:41;14.80;61.60
54006;DHT22;39919;38.160;-122.260;2023-03-04T01:30:11;14.70;61.40
54006;DHT22;39919;38.160;-122.260;2023-03-04T01:32:40;14.60;61.00
54006;DHT22;39919;38.160;-122.260;2023-03-04T01:35:10;14.50;61.50
54006;DHT22;39919;38.160;-122.260;2023-03-04T01:37:40;14.40;62.70
54006;DHT22;39919;38.160;-122.260;2023-03-04T01:40:14;14.30;65.10
54006;DHT22;39919;38.160;-122.260;2023-03-04T01:42:44;14.20;72.20
54006;DHT22;39919;38.160;-122.260;2023-03-04T01:45:16;14.10;80.40
54006;DHT22;39919;38.160;-122.260;2023-03-04T01:47:47;14.00;87.00
54006;DHT22;39919;38.160;-122.260;2023-03-04T02:05:35;13.10;62.20
54006;DHT22;39919;38.160;-122.260;2023-03-04T02:08:05;13.30;62.90
54006;DHT22;39919;38.160;-122.260;2023-03-04T02:10:41;13.20;63.40
54006;DHT22;39919;38.160;-122.260;2023-03-04T02:13:14;13.00;63.60
54006;DHT22;39919;38.160;-122.260;2023-03-04T02:15:45;12.90;63.90
54006;DHT22;39919;38.160;-122.260;2023-03-04T02:18:16;12.80;64.20
54006;DHT22;39919;38.160;-122.260;2023-03-04T02:20:59;12.70;64.60
54006;DHT22;39919;38.160;-122.260;2023-03-04T02:23:34;12.70;65.00
54006;DHT22;39919;38.160;-122.260;2023-03-04T02:26:13;12.50;65.20
54006;DHT22;39919;38.160;-122.260;2023-03-04T02:28:43;12.40;65.40
54006;DHT22;39919;38.160;-122.260;2023-03-04T02:31:22;12.40;66.00
54006;DHT22;39919;38.160;-122.260;2023-03-04T02:33:53;12.30;66.10
54006;DHT22;39919;38.160;-122.260;2023-03-04T02:36:23;12.20;66.20
54006;DHT22;39919;38.160;-122.260;2023-03-04T02:38:53;12.10;66.30
54006;DHT22;39919;38.160;-122.260;2023-03-04T02:41:26;12.00;66.40
54006;DHT22;39919;38.160;-122.260;2023-03-04T02:44:17;12.00;66.50
54006;DHT22;39919;38.160;-122.260;2023-03-04T02:46:46;11.90;66.60
54006;DHT22;39919;38.160;-122.260;2023-03-04T02:49:17;11.80;66.90
54006;DHT22;39919;38.160;-122.260;2023-03-04T02:51:51;11.70;66.90
54006;DHT22;39919;38.160;-122.260;2023-03-04T02:54:23;11.70;67.00
54006;DHT22;39919;38.160;-122.260;2023-03-04T02:56:56;11.60;67.30
54006;DHT22;39919;38.160;-122.260;2023-03-04T02:59:26;11.60;67.60
54006;DHT22;39919;38.160;-122.260;2023-03-04T03:01:56;11.50;67.90
54006;DHT22;39919;38.160;-122.260;2023-03-04T03:04:28;11.40;68.10
54006;DHT22;39919;38.160;-122.260;2023-03-04T03:06:58;11.40;68.30
54006;DHT22;39919;38.160;-122.260;2023-03-04T03:09:27;11.30;68.60
54006;DHT22;39919;38.160;-122.260;2023-03-04T03:11:58;11.20;69.00
54006;DHT22;39919;38.160;-122.260;2023-03-04T03:14:30;11.20;69.60
54006;DHT22;39919;38.160;-122.260;2023-03-04T03:17:02;11.10;70.10
54006;DHT22;39919;38.160;-122.260;2023-03-04T03:19:34;11.10;70.70
54006;DHT22;39919;38.160;-122.260;2023-03-04T03:22:03;11.00;70.70
54006;DHT22;39919;38.160;-122.260;2023-03-04T03:24:34;11.00;70.90
54006;DHT22;39919;38.160;-122.260;2023-03-04T03:27:05;10.90;71.10
54006;DHT22;39919;38.160;-122.260;2023-03-04T03:29:35;10.90;71.40
54006;DHT22;39919;38.160;-122.260;2023-03-04T03:32:36;10.80;71.80
54006;DHT22;39919;38.160;-122.260;2023-03-04T03:35:18;10.80;72.50
54006;DHT22;39919;38.160;-122.260;2023-03-04T03:38:13;10.70;72.60
54006;DHT22;39919;38.160;-122.260;2023-03-04T03:43:57;10.70;73.20
54006;DHT22;39919;38.160;-122.260;2023-03-04T03:46:27;10.60;73.30
54006;DHT22;39919;38.160;-122.260;2023-03-04T03:48:57;10.60;73.20
54006;DHT22;39919;38.160;-122.260;2023-03-04T03:51:29;10.60;73.40
54006;DHT22;39919;38.160;-122.260;2023-03-04T03:54:01;10.50;73.50
54006;DHT22;39919;38.160;-122.260;2023-03-04T03:56:30;10.50;73.90
54006;DHT22;39919;38.160;-122.260;2023-03-04T03:59:01;10.50;74.20
54006;DHT22;39919;38.160;-122.260;2023-03-04T04:01:30;10.40;74.20
54006;DHT22;39919;38.160;-122.260;2023-03-04T04:04:01;10.40;74.40
54006;DHT22;39919;38.160;-122.260;2023-03-04T04:07:17;10.40;74.60
54006;DHT22;39919;38.160;-122.260;2023-03-04T04:09:37;10.30;74.60
54006;DHT22;39919;38.160;-122.260;2023-03-04T04:12:15;10.30;74.70
54006;DHT22;39919;38.160;-122.260;2023-03-04T04:14:48;10.30;74.90
54006;DHT22;39919;38.160;-122.260;2023-03-04T04:17:20;10.30;75.30
54006;DHT22;39919;38.160;-122.260;2023-03-04T04:19:50;10.30;75.70
54006;DHT22;39919;38.160;-122.260;2023-03-04T04:22:19;10.20;75.90
54006;DHT22;39919;38.160;-122.260;2023-03-04T04:24:54;10.20;75.90
54006;DHT22;39919;38.160;-122.260;2023-03-04T04:27:26;10.20;76.40
54006;DHT22;39919;38.160;-122.260;2023-03-04T04:29:57;10.20;76.60
54006;DHT22;39919;38.160;-122.260;2023-03-04T04:32:26;10.10;76.70
54006;DHT22;39919;38.160;-122.260;2023-03-04T04:35:04;10.10;76.70
54006;DHT22;39919;38.160;-122.260;2023-03-04T04:37:35;10.10;77.00
54006;DHT22;39919;38.160;-122.260;2023-03-04T04:40:19;10.10;77.10
54006;DHT22;39919;38.160;-122.260;2023-03-04T04:42:54;10.00;76.90
54006;DHT22;39919;38.160;-122.260;2023-03-04T04:45:27;10.00;76.90
54006;DHT22;39919;38.160;-122.260;2023-03-04T04:47:56;10.00;77.00
54006;DHT22;39919;38.160;-122.260;2023-03-04T04:50:27;9.90;76.80
54006;DHT22;39919;38.160;-122.260;2023-03-04T04:52:56;9.90;76.90
54006;DHT22;39919;38.160;-122.260;2023-03-04T04:55:28;9.90;76.80
54006;DHT22;39919;38.160;-122.260;2023-03-04T04:58:00;9.90;76.60
54006;DHT22;39919;38.160;-122.260;2023-03-04T05:01:01;9.90;76.40
54006;DHT22;39919;38.160;-122.260;2023-03-04T05:04:17;9.80;76.40
54006;DHT22;39919;38.160;-122.260;2023-03-04T05:07:00;9.80;76.40
54006;DHT22;39919;38.160;-122.260;2023-03-04T05:09:29;9.80;76.60
54006;DHT22;39919;38.160;-122.260;2023-03-04T05:11:58;9.80;76.80
54006;DHT22;39919;38.160;-122.260;2023-03-04T05:14:31;9.80;76.80
54006;DHT22;39919;38.160;-122.260;2023-03-04T05:17:02;9.80;77.00
54006;DHT22;39919;38.160;-122.260;2023-03-04T05:19:31;9.80;77.20
54006;DHT22;39919;38.160;-122.260;2023-03-04T05:22:01;9.70;77.50
54006;DHT22;39919;38.160;-122.260;2023-03-04T05:24:35;9.70;77.80
54006;DHT22;39919;38.160;-122.260;2023-03-04T05:27:05;9.70;77.90
54006;DHT22;39919;38.160;-122.260;2023-03-04T05:29:36;9.70;77.80
54006;DHT22;39919;38.160;-122.260;2023-03-04T05:32:11;9.60;77.80
54006;DHT22;39919;38.160;-122.260;2023-03-04T05:34:46;9.60;77.90
54006;DHT22;39919;38.160;-122.260;2023-03-04T05:37:16;9.60;78.20
54006;DHT22;39919;38.160;-122.260;2023-03-04T05:39:47;9.60;78.20
54006;DHT22;39919;38.160;-122.260;2023-03-04T05:42:21;9.60;78.70
54006;DHT22;39919;38.160;-122.260;2023-03-04T05:44:53;9.60;78.70
54006;DHT22;39919;38.160;-122.260;2023-03-04T05:47:29;9.50;78.40
54006;DHT22;39919;38.160;-122.260;2023-03-04T05:49:58;9.60;78.50
54006;DHT22;39919;38.160;-122.260;2023-03-04T05:52:27;9.50;78.60
54006;DHT22;39919;38.160;-122.260;2023-03-04T05:55:02;9.50;78.60
54006;DHT22;39919;38.160;-122.260;2023-03-04T05:57:31;9.50;78.90
54006;DHT22;39919;38.160;-122.260;2023-03-04T06:00:01;9.50;79.40
54006;DHT22;39919;38.160;-122.260;2023-03-04T06:02:33;9.40;79.70
54006;DHT22;39919;38.160;-122.260;2023-03-04T06:05:03;9.40;79.70
54006;DHT22;39919;38.160;-122.260;2023-03-04T06:07:35;9.40;79.60
54006;DHT22;39919;38.160;-122.260;2023-03-04T06:10:05;9.40;79.60
54006;DHT22;39919;38.160;-122.260;2023-03-04T06:12:34;9.40;79.50
54006;DHT22;39919;38.160;-122.260;2023-03-04T06:15:04;9.40;79.60
54006;DHT22;39919;38.160;-122.260;2023-03-04T06:17:38;9.30;79.40
54006;DHT22;39919;38.160;-122.260;2023-03-04T06:20:08;9.40;79.50
54006;DHT22;39919;38.160;-122.260;2023-03-04T06:22:37;9.30;80.10
54006;DHT22;39919;38.160;-122.260;2023-03-04T06:25:09;9.30;79.60
54006;DHT22;39919;38.160;-122.260;2023-03-04T06:27:38;9.30;79.70
54006;DHT22;39919;38.160;-122.260;2023-03-04T06:30:09;9.30;79.50
54006;DHT22;39919;38.160;-122.260;2023-03-04T06:32:40;9.30;79.40
54006;DHT22;39919;38.160;-122.260;2023-03-04T06:35:12;9.20;79.10
54006;DHT22;39919;38.160;-122.260;2023-03-04T06:37:42;9.20;79.10
54006;DHT22;39919;38.160;-122.260;2023-03-04T06:40:12;9.20;79.50
54006;DHT22;39919;38.160;-122.260;2023-03-04T06:42:41;9.20;79.80
54006;DHT22;39919;38.160;-122.260;2023-03-04T06:45:11;9.20;80.40
54006;DHT22;39919;38.160;-122.260;2023-03-04T06:47:44;9.20;80.60
54006;DHT22;39919;38.160;-122.260;2023-03-04T06:50:13;9.10;81.00
54006;DHT22;39919;38.160;-122.260;2023-03-04T06:52:42;9.10;81.20
54006;DHT22;39919;38.160;-122.260;2023-03-04T06:55:12;9.10;81.10
54006;DHT22;39919;38.160;-122.260;2023-03-04T06:57:44;9.10;81.10
54006;DHT22;39919;38.160;-122.260;2023-03-04T07:00:14;9.10;81.00
54006;DHT22;39919;38.160;-122.260;2023-03-04T07:02:45;9.10;81.10
54006;DHT22;39919;38.160;-122.260;2023-03-04T07:05:15;9.00;80.90
54006;DHT22;39919;38.160;-122.260;2023-03-04T07:07:44;9.00;80.70
54006;DHT22;39919;38.160;-122.260;2023-03-04T07:10:15;9.00;80.70
54006;DHT22;39919;38.160;-122.260;2023-03-04T07:12:44;9.00;80.70
54006;DHT22;39919;38.160;-122.260;2023-03-04T07:15:16;9.00;80.80
54006;DHT22;39919;38.160;-122.260;2023-03-04T07:17:47;8.90;81.10
54006;DHT22;39919;38.160;-122.260;2023-03-04T07:20:16;8.90;81.20
54006;DHT22;39919;38.160;-122.260;2023-03-04T07:22:47;8.90;81.10
54006;DHT22;39919;38.160;-122.260;2023-03-04T07:25:17;8.90;81.10
54006;DHT22;39919;38.160;-122.260;2023-03-04T07:27:46;8.90;81.10
54006;DHT22;39919;38.160;-122.260;2023-03-04T07:30:15;8.90;81.00
54006;DHT22;39919;38.160;-122.260;2023-03-04T07:32:46;8.90;80.90
54006;DHT22;39919;38.160;-122.260;2023-03-04T07:35:15;8.80;80.90
54006;DHT22;39919;38.160;-122.260;2023-03-04T07:37:45;8.80;81.20
54006;DHT22;39919;38.160;-122.260;2023-03-04T07:40:14;8.80;81.50
54006;DHT22;39919;38.160;-122.260;2023-03-04T07:42:47;8.80;81.50
54006;DHT22;39919;38.160;-122.260;2023-03-04T07:45:17;8.80;81.80
54006;DHT22;39919;38.160;-122.260;2023-03-04T07:47:48;8.80;82.70
54006;DHT22;39919;38.160;-122.260;2023-03-04T07:50:23;8.80;83.40
54006;DHT22;39919;38.160;-122.260;2023-03-04T07:52:52;8.70;83.70
54006;DHT22;39919;38.160;-122.260;2023-03-04T07:55:21;8.80;83.90
54006;DHT22;39919;38.160;-122.260;2023-03-04T07:57:53;8.70;83.60
54006;DHT22;39919;38.160;-122.260;2023-03-04T08:00:22;8.70;83.30
54006;DHT22;39919;38.160;-122.260;2023-03-04T08:02:53;8.70;83.40
54006;DHT22;39919;38.160;-122.260;2023-03-04T08:05:22;8.70;82.70
54006;DHT22;39919;38.160;-122.260;2023-03-04T08:07:51;8.70;82.60
54006;DHT22;39919;38.160;-122.260;2023-03-04T08:10:23;8.70;82.50
54006;DHT22;39919;38.160;-122.260;2023-03-04T08:12:52;8.70;82.50
54006;DHT22;39919;38.160;-122.260;2023-03-04T08:15:21;8.60;82.70
54006;DHT22;39919;38.160;-122.260;2023-03-04T08:17:52;8.60;83.30
54006;DHT22;39919;38.160;-122.260;2023-03-04T08:20:23;8.60;82.60
54006;DHT22;39919;38.160;-122.260;2023-03-04T08:22:52;8.60;82.50
54006;DHT22;39919;38.160;-122.260;2023-03-04T08:25:21;8.60;82.30
54006;DHT22;39919;38.160;-122.260;2023-03-04T08:27:51;8.60;82.20
54006;DHT22;39919;38.160;-122.260;2023-03-04T08:30:20;8.60;82.10
54006;DHT22;39919;38.160;-122.260;2023-03-04T08:32:54;8.60;81.90
54006;DHT22;39919;38.160;-122.260;2023-03-04T08:35:23;8.60;81.80
54006;DHT22;39919;38.160;-122.260;2023-03-04T08:37:52;8.60;81.70
54006;DHT22;39919;38.160;-122.260;2023-03-04T08:40:21;8.60;81.60
54006;DHT22;39919;38.160;-122.260;2023-03-04T08:42:52;8.50;81.50
54006;DHT22;39919;38.160;-122.260;2023-03-04T08:45:22;8.50;81.40
54006;DHT22;39919;38.160;-122.260;2023-03-04T08:47:54;8.50;81.60
54006;DHT22;39919;38.160;-122.260;2023-03-04T08:50:25;8.50;81.60
54006;DHT22;39919;38.160;-122.260;2023-03-04T08:52:57;8.50;81.50
54006;DHT22;39919;38.160;-122.260;2023-03-04T08:55:26;8.50;81.50
54006;DHT22;39919;38.160;-122.260;2023-03-04T08:57:55;8.50;81.30
54006;DHT22;39919;38.160;-122.260;2023-03-04T09:00:25;8.50;81.40
54006;DHT22;39919;38.160;-122.260;2023-03-04T09:02:54;8.50;81.30
54006;DHT22;39919;38.160;-122.260;2023-03-04T09:05:25;8.50;81.30
54006;DHT22;39919;38.160;-122.260;2023-03-04T09:07:54;8.50;81.20
54006;DHT22;39919;38.160;-122.260;2023-03-04T09:10:24;8.50;81.10
54006;DHT22;39919;38.160;-122.260;2023-03-04T09:12:53;8.50;81.10
54006;DHT22;39919;38.160;-122.260;2023-03-04T09:15:22;8.50;81.00
54006;DHT22;39919;38.160;-122.260;2023-03-04T09:17:51;8.50;80.40
54006;DHT22;39919;38.160;-122.260;2023-03-04T09:20:21;8.50;80.30
54006;DHT22;39919;38.160;-122.260;2023-03-04T09:22:52;8.50;80.20
54006;DHT22;39919;38.160;-122.260;2023-03-04T09:25:21;8.50;80.20
54006;DHT22;39919;38.160;-122.260;2023-03-04T09:27:50;8.50;79.80
54006;DHT22;39919;38.160;-122.260;2023-03-04T09:30:20;8.50;79.40
54006;DHT22;39919;38.160;-122.260;2023-03-04T09:32:49;8.50;79.90
54006;DHT22;39919;38.160;-122.260;2023-03-04T09:35:21;8.50;79.00
54006;DHT22;39919;38.160;-122.260;2023-03-04T09:37:52;8.50;78.80
54006;DHT22;39919;38.160;-122.260;2023-03-04T09:40:25;8.50;79.20
54006;DHT22;39919;38.160;-122.260;2023-03-04T09:42:56;8.50;78.60
54006;DHT22;39919;38.160;-122.260;2023-03-04T09:45:34;8.50;78.70
54006;DHT22;39919;38.160;-122.260;2023-03-04T09:48:05;8.50;77.70
54006;DHT22;39919;38.160;-122.260;2023-03-04T09:50:46;8.50;77.90
54006;DHT22;39919;38.160;-122.260;2023-03-04T09:53:23;8.40;77.60
54006;DHT22;39919;38.160;-122.260;2023-03-04T09:55:56;8.40;77.60
54006;DHT22;39919;38.160;-122.260;2023-03-04T09:58:33;8.40;77.40
54006;DHT22;39919;38.160;-122.260;2023-03-04T10:01:09;8.40;77.20
54006;DHT22;39919;38.160;-122.260;2023-03-04T10:03:44;8.40;77.10
54006;DHT22;39919;38.160;-122.260;2023-03-04T10:06:17;8.40;77.20
54006;DHT22;39919;38.160;-122.260;2023-03-04T10:08:53;8.30;76.70
54006;DHT22;39919;38.160;-122.260;2023-03-04T10:11:26;8.30;76.50
54006;DHT22;39919;38.160;-122.260;2023-03-04T10:14:02;8.30;76.60
54006;DHT22;39919;38.160;-122.260;2023-03-04T10:16:36;8.30;76.50
54006;DHT22;39919;38.160;-122.260;2023-03-04T10:19:27;8.30;76.60
54006;DHT22;39919;38.160;-122.260;2023-03-04T10:21:58;8.30;76.60
54006;DHT22;39919;38.160;-122.260;2023-03-04T10:24:29;8.30;77.20
54006;DHT22;39919;38.160;-122.260;2023-03-04T10:27:03;8.20;76.00
54006;DHT22;39919;38.160;-122.260;2023-03-04T10:29:34;8.20;76.00
54006;DHT22;39919;38.160;-122.260;2023-03-04T10:32:11;8.20;75.60
54006;DHT22;39919;38.160;-122.260;2023-03-04T10:34:41;8.20;75.20
54006;DHT22;39919;38.160;-122.260;2023-03-04T10:37:13;8.20;75.30
54006;DHT22;39919;38.160;-122.260;2023-03-04T10:39:45;8.20;75.10
54006;DHT22;39919;38.160;-122.260;2023-03-04T10:42:27;8.20;74.90
54006;DHT22;39919;38.160;-122.260;2023-03-04T10:45:03;8.20;75.00
54006;DHT22;39919;38.160;-122.260;2023-03-04T10:47:32;8.20;75.00
54006;DHT22;39919;38.160;-122.260;2023-03-04T10:50:04;8.20;75.10
54006;DHT22;39919;38.160;-122.260;2023-03-04T10:52:39;8.10;75.10
54006;DHT22;39919;38.160;-122.260;2023-03-04T10:55:16;8.10;75.10
54006;DHT22;39919;38.160;-122.260;2023-03-04T10:57:49;8.10;75.00
54006;DHT22;39919;38.160;-122.260;2023-03-04T11:00:28;8.10;74.90
54006;DHT22;39919;38.160;-122.260;2023-03-04T11:03:24;8.00;74.70
54006;DHT22;39919;38.160;-122.260;2023-03-04T11:06:09;8.00;74.70
54006;DHT22;39919;38.160;-122.260;2023-03-04T11:08:40;8.00;74.90
54006;DHT22;39919;38.160;-122.260;2023-03-04T11:11:29;8.00;75.00
54006;DHT22;39919;38.160;-122.260;2023-03-04T11:14:03;8.00;75.00
54006;DHT22;39919;38.160;-122.260;2023-03-04T11:16:33;8.00;74.90
54006;DHT22;39919;38.160;-122.260;2023-03-04T11:19:04;8.00;74.90
54006;DHT22;39919;38.160;-122.260;2023-03-04T11:21:38;8.00;74.90
54006;DHT22;39919;38.160;-122.260;2023-03-04T11:24:13;7.90;74.70
54006;DHT22;39919;38.160;-122.260;2023-03-04T11:26:46;8.00;74.50
54006;DHT22;39919;38.160;-122.260;2023-03-04T11:29:19;8.00;75.00
54006;DHT22;39919;38.160;-122.260;2023-03-04T11:31:52;7.90;74.30
54006;DHT22;39919;38.160;-122.260;2023-03-04T11:34:33;8.00;74.30
54006;DHT22;39919;38.160;-122.260;2023-03-04T11:37:11;7.90;74.40
54006;DHT22;39919;38.160;-122.260;2023-03-04T11:39:48;7.90;74.60
54006;DHT22;39919;38.160;-122.260;2023-03-04T11:42:30;7.90;74.80
54006;DHT22;39919;38.160;-122.260;2023-03-04T11:45:01;7.90;74.90
54006;DHT22;39919;38.160;-122.260;2023-03-04T11:47:44;7.90;75.20
54006;DHT22;39919;38.160;-122.260;2023-03-04T11:50:28;7.90;75.40
54006;DHT22;39919;38.160;-122.260;2023-03-04T11:56:08;7.90;75.90
54006;DHT22;39919;38.160;-122.260;2023-03-04T11:58:57;7.90;76.00
54006;DHT22;39919;38.160;-122.260;2023-03-04T12:01:43;7.90;76.30
54006;DHT22;39919;38.160;-122.260;2023-03-04T12:04:23;7.90;76.60
54006;DHT22;39919;38.160;-122.260;2023-03-04T12:07:07;7.90;76.90
54006;DHT22;39919;38.160;-122.260;2023-03-04T12:09:44;7.90;77.10
54006;DHT22;39919;38.160;-122.260;2023-03-04T12:12:33;7.90;77.50
54006;DHT22;39919;38.160;-122.260;2023-03-04T12:15:16;7.90;77.70
54006;DHT22;39919;38.160;-122.260;2023-03-04T12:18:14;7.90;78.00
54006;DHT22;39919;38.160;-122.260;2023-03-04T12:20:56;7.90;78.30
54006;DHT22;39919;38.160;-122.260;2023-03-04T12:23:48;7.90;78.90
54006;DHT22;39919;38.160;-122.260;2023-03-04T12:26:27;7.90;79.10
54006;DHT22;39919;38.160;-122.260;2023-03-04T12:29:06;7.90;79.30
54006;DHT22;39919;38.160;-122.260;2023-03-04T12:31:40;7.90;79.20
54006;DHT22;39919;38.160;-122.260;2023-03-04T12:34:37;7.90;79.30
54006;DHT22;39919;38.160;-122.260;2023-03-04T12:37:23;7.90;79.30
54006;DHT22;39919;38.160;-122.260;2023-03-04T12:40:22;7.90;79.50
54006;DHT22;39919;38.160;-122.260;2023-03-04T12:46:03;7.80;79.70
54006;DHT22;39919;38.160;-122.260;2023-03-04T12:48:40;7.80;79.70
54006;DHT22;39919;38.160;-122.260;2023-03-04T12:51:22;7.80;79.60
54006;DHT22;39919;38.160;-122.260;2023-03-04T12:54:12;7.80;79.60
54006;DHT22;39919;38.160;-122.260;2023-03-04T12:56:50;7.80;80.30
54006;DHT22;39919;38.160;-122.260;2023-03-04T12:59:23;7.80;80.90
54006;DHT22;39919;38.160;-122.260;2023-03-04T13:02:00;7.80;81.40
54006;DHT22;39919;38.160;-122.260;2023-03-04T13:04:40;7.80;81.40
54006;DHT22;39919;38.160;-122.260;2023-03-04T13:07:19;7.80;81.30
54006;DHT22;39919;38.160;-122.260;2023-03-04T13:09:54;7.80;81.50
54006;DHT22;39919;38.160;-122.260;2023-03-04T13:12:25;7.80;81.70
54006;DHT22;39919;38.160;-122.260;2023-03-04T13:15:29;7.80;82.40
54006;DHT22;39919;38.160;-122.260;2023-03-04T13:17:59;7.80;82.60
54006;DHT22;39919;38.160;-122.260;2023-03-04T13:20:36;7.70;82.70
54006;DHT22;39919;38.160;-122.260;2023-03-04T13:23:27;7.70;83.40
54006;DHT22;39919;38.160;-122.260;2023-03-04T13:29:31;7.70;83.00
54006;DHT22;39919;38.160;-122.260;2023-03-04T13:34:51;7.60;82.90
54006;DHT22;39919;38.160;-122.260;2023-03-04T13:37:31;7.60;82.90
54006;DHT22;39919;38.160;-122.260;2023-03-04T13:40:35;7.60;83.00
54006;DHT22;39919;38.160;-122.260;2023-03-04T13:43:27;7.60;82.90
54006;DHT22;39919;38.160;-122.260;2023-03-04T13:46:39;7.60;83.00
54006;DHT22;39919;38.160;-122.260;2023-03-04T13:49:20;7.50;83.40
54006;DHT22;39919;38.160;-122.260;2023-03-04T13:51:52;7.50;85.00
54006;DHT22;39919;38.160;-122.260;2023-03-04T13:54:25;7.50;85.60
54006;DHT22;39919;38.160;-122.260;2023-03-04T13:57:10;7.50;86.30
54006;DHT22;39919;38.160;-122.260;2023-03-04T13:59:42;7.50;86.20
54006;DHT22;39919;38.160;-122.260;2023-03-04T14:02:13;7.50;86.60
54006;DHT22;39919;38.160;-122.260;2023-03-04T14:04:45;7.50;87.30
54006;DHT22;39919;38.160;-122.260;2023-03-04T14:07:32;7.50;87.90
54006;DHT22;39919;38.160;-122.260;2023-03-04T14:10:06;7.50;87.60
54006;DHT22;39919;38.160;-122.260;2023-03-04T14:12:36;7.50;87.60
54006;DHT22;39919;38.160;-122.260;2023-03-04T14:15:19;7.50;87.90
54006;DHT22;39919;38.160;-122.260;2023-03-04T14:17:50;7.50;88.80
54006;DHT22;39919;38.160;-122.260;2023-03-04T14:20:26;7.50;89.30
54006;DHT22;39919;38.160;-122.260;2023-03-04T14:23:00;7.60;89.40
54006;DHT22;39919;38.160;-122.260;2023-03-04T14:25:32;7.60;89.60
54006;DHT22;39919;38.160;-122.260;2023-03-04T14:28:08;7.60;90.20
54006;DHT22;39919;38.160;-122.260;2023-03-04T14:30:38;7.60;90.80
54006;DHT22;39919;38.160;-122.260;2023-03-04T14:33:13;7.70;91.30
54006;DHT22;39919;38.160;-122.260;2023-03-04T14:35:49;7.70;91.80
54006;DHT22;39919;38.160;-122.260;2023-03-04T14:38:22;7.70;91.80
54006;DHT22;39919;38.160;-122.260;2023-03-04T14:40:56;7.70;91.90
54006;DHT22;39919;38.160;-122.260;2023-03-04T14:43:28;7.70;91.80
54006;DHT22;39919;38.160;-122.260;2023-03-04T14:45:59;7.70;91.70
54006;DHT22;39919;38.160;-122.260;2023-03-04T14:48:31;7.80;91.50
54006;DHT22;39919;38.160;-122.260;2023-03-04T14:51:01;7.80;91.70
54006;DHT22;39919;38.160;-122.260;2023-03-04T14:53:31;7.80;91.60
54006;DHT22;39919;38.160;-122.260;2023-03-04T14:56:04;7.80;92.00
54006;DHT22;39919;38.160;-122.260;2023-03-04T14:58:35;7.80;92.30
54006;DHT22;39919;38.160;-122.260;2023-03-04T15:01:12;7.90;92.30
54006;DHT22;39919;38.160;-122.260;2023-03-04T15:03:43;7.90;92.70
54006;DHT22;39919;38.160;-122.260;2023-03-04T15:06:18;7.90;92.60
54006;DHT22;39919;38.160;-122.260;2023-03-04T15:08:57;7.90;92.80
54006;DHT22;39919;38.160;-122.260;2023-03-04T15:11:30;8.00;93.20
54006;DHT22;39919;38.160;-122.260;2023-03-04T15:14:01;8.00;93.60
54006;DHT22;39919;38.160;-122.260;2023-03-04T15:16:53;8.10;93.80
54006;DHT22;39919;38.160;-122.260;2023-03-04T15:19:27;8.20;94.00
54006;DHT22;39919;38.160;-122.260;2023-03-04T15:22:06;8.20;94.20
54006;DHT22;39919;38.160;-122.260;2023-03-04T15:24:35;8.30;94.50
54006;DHT22;39919;38.160;-122.260;2023-03-04T15:27:09;8.30;94.70
54006;DHT22;39919;38.160;-122.260;2023-03-04T15:29:40;8.40;94.90
54006;DHT22;39919;38.160;-122.260;2023-03-04T15:32:09;8.50;95.00
54006;DHT22;39919;38.160;-122.260;2023-03-04T15:34:39;8.60;95.00
54006;DHT22;39919;38.160;-122.260;2023-03-04T15:37:17;8.60;94.30
54006;DHT22;39919;38.160;-122.260;2023-03-04T15:39:50;8.70;93.40
54006;DHT22;39919;38.160;-122.260;2023-03-04T15:42:21;8.80;92.90
54006;DHT22;39919;38.160;-122.260;2023-03-04T15:44:51;8.90;92.60
54006;DHT22;39919;38.160;-122.260;2023-03-04T15:47:20;9.00;92.30
54006;DHT22;39919;38.160;-122.260;2023-03-04T15:49:49;9.10;92.00
54006;DHT22;39919;38.160;-122.260;2023-03-04T15:52:20;9.20;91.20
54006;DHT22;39919;38.160;-122.260;2023-03-04T15:54:51;9.30;90.60
54006;DHT22;39919;38.160;-122.260;2023-03-04T15:57:23;9.50;90.00
54006;DHT22;39919;38.160;-122.260;2023-03-04T15:59:53;9.60;87.60
54006;DHT22;39919;38.160;-122.260;2023-03-04T16:02:24;9.60;87.00
54006;DHT22;39919;38.160;-122.260;2023-03-04T16:04:54;9.70;85.80
54006;DHT22;39919;38.160;-122.260;2023-03-04T16:07:25;9.90;84.80
54006;DHT22;39919;38.160;-122.260;2023-03-04T16:09:58;10.00;83.60